地図

経路データ

SID SEASON NUMBER BASIN SUBBASIN NAME ISO_TIME NATURE LAT LON WMO_WIND WMO_PRES WMO_AGENCY TRACK_TYPE DIST2LAND LANDFALL IFLAG USA_AGENCY USA_ATCF_ID USA_LAT USA_LON USA_RECORD USA_STATUS USA_WIND USA_PRES USA_SSHS USA_R34_NE USA_R34_SE USA_R34_SW USA_R34_NW USA_R50_NE USA_R50_SE USA_R50_SW USA_R50_NW USA_R64_NE USA_R64_SE USA_R64_SW USA_R64_NW USA_POCI USA_ROCI USA_RMW USA_EYE TOKYO_LAT TOKYO_LON TOKYO_GRADE TOKYO_WIND TOKYO_PRES TOKYO_R50_DIR TOKYO_R50_LONG TOKYO_R50_SHORT TOKYO_R30_DIR TOKYO_R30_LONG TOKYO_R30_SHORT TOKYO_LAND CMA_LAT CMA_LON CMA_CAT CMA_WIND CMA_PRES HKO_LAT HKO_LON HKO_CAT HKO_WIND HKO_PRES NEWDELHI_LAT NEWDELHI_LON NEWDELHI_GRADE NEWDELHI_WIND NEWDELHI_PRES NEWDELHI_CI NEWDELHI_DP NEWDELHI_POCI REUNION_LAT REUNION_LON REUNION_TYPE REUNION_WIND REUNION_PRES REUNION_TNUM REUNION_CI REUNION_RMW REUNION_R34_NE REUNION_R34_SE REUNION_R34_SW REUNION_R34_NW REUNION_R50_NE REUNION_R50_SE REUNION_R50_SW REUNION_R50_NW REUNION_R64_NE REUNION_R64_SE REUNION_R64_SW REUNION_R64_NW BOM_LAT BOM_LON BOM_TYPE BOM_WIND BOM_PRES BOM_TNUM BOM_CI BOM_RMW BOM_R34_NE BOM_R34_SE BOM_R34_SW BOM_R34_NW BOM_R50_NE BOM_R50_SE BOM_R50_SW BOM_R50_NW BOM_R64_NE BOM_R64_SE BOM_R64_SW BOM_R64_NW BOM_ROCI BOM_POCI BOM_EYE BOM_POS_METHOD BOM_PRES_METHOD NADI_LAT NADI_LON NADI_CAT NADI_WIND NADI_PRES WELLINGTON_LAT WELLINGTON_LON WELLINGTON_WIND WELLINGTON_PRES DS824_LAT DS824_LON DS824_STAGE DS824_WIND DS824_PRES TD9636_LAT TD9636_LON TD9636_STAGE TD9636_WIND TD9636_PRES TD9635_LAT TD9635_LON TD9635_WIND TD9635_PRES TD9635_ROCI NEUMANN_LAT NEUMANN_LON NEUMANN_CLASS NEUMANN_WIND NEUMANN_PRES MLC_LAT MLC_LON MLC_CLASS MLC_WIND MLC_PRES USA_GUST BOM_GUST BOM_GUST_PER REUNION_GUST REUNION_GUST_PER USA_SEAHGT USA_SEARAD_NE USA_SEARAD_SE USA_SEARAD_SW USA_SEARAD_NW STORM_SPEED STORM_DIR
1991105S12103 1991 19 SI WA FIFI 1991-04-14 18:00:00 TS -12.1000 102.700 main 654 654 O___________O_ jtwc_sh SH201991 -12.1000 102.700 20 -1 -12.1000 102.700 TC 20 3 228
1991105S12103 1991 19 SI WA FIFI 1991-04-14 21:00:00 TS -12.2100 102.578 main 668 658 P___________P_ SH201991 -12.2100 102.578 20 -1 -12.2100 102.578 TC 20 1 278
1991105S12103 1991 19 SI WA FIFI 1991-04-15 00:00:00 TS -12.0857 102.600 25 1003 bom main 658 658 O_____O_____O_ jtwc_sh SH201991 -12.3000 102.500 20 -1 -10.8000 103.200 20 25 1003 1.50000 129 -12.3000 102.500 TC 20 1 19
1991105S12103 1991 19 SI WA FIFI 1991-04-15 03:00:00 TS -12.0860 102.624 main 658 654 P_____P_____P_ SH201991 -12.3575 102.492 20 -1 -11.0000 103.150 20 25 1002 161 -12.3575 102.492 TC 20 1 77
1991105S12103 1991 19 SI WA FIFI 1991-04-15 06:00:00 TS -12.0727 102.664 25 1002 bom main 654 654 O_____O_____O_ jtwc_sh SH201991 -12.4000 102.500 20 -1 -11.2000 103.100 20 25 1002 1.50000 193 -12.4000 102.500 TC 20 0 119
1991105S12103 1991 19 SI WA FIFI 1991-04-15 09:00:00 TS -12.1050 102.655 main 654 654 P_____P_____P_ SH201991 -12.4575 102.458 22 -1 -11.4000 103.050 20 25 1001 193 -12.4575 102.458 TC 22 1 202
1991105S12103 1991 19 SI WA FIFI 1991-04-15 12:00:00 TS -12.2000 102.600 25 1000 bom main 668 668 O_____O_____O_ jtwc_sh SH201991 -12.5000 102.400 25 -1 -11.6000 103.000 20 25 1000 2.00000 193 -12.5000 102.400 TC 25 2 211
1991105S12103 1991 19 SI WA FIFI 1991-04-15 15:00:00 TS -12.2817 102.550 main 678 678 P_____P_____P_ SH201991 -12.5150 102.350 25 -1 -11.8150 102.950 20 25 1000 193 -12.5150 102.350 TC 25 2 215
1991105S12103 1991 19 SI WA FIFI 1991-04-15 18:00:00 TS -12.3333 102.500 25 1000 bom main 683 683 O_____O_____O_ jtwc_sh SH201991 -12.5000 102.300 25 -1 -12.0000 102.900 20 25 1000 2.00000 193 -12.5000 102.300 TC 25 1 240
1991105S12103 1991 19 SI WA FIFI 1991-04-15 21:00:00 TS -12.3383 102.450 main 683 683 P_____P_____P_ SH201991 -12.4500 102.250 27 -1 -12.1150 102.850 20 25 1000 203 -12.4500 102.250 TC 27 1 270
1991105S12103 1991 19 SI WA FIFI 1991-04-16 00:00:00 TS -12.3333 102.400 25 1000 bom main 688 688 O_____O_____O_ jtwc_sh SH201991 -12.4000 102.200 30 -1 -12.2000 102.800 20 25 1000 2.00000 214 -12.4000 102.200 TC 30 1 259
1991105S12103 1991 19 SI WA FIFI 1991-04-16 03:00:00 TS -12.3592 102.345 main 703 703 P_____P_____P_ SH201991 -12.3850 102.143 30 -1 -12.3075 102.750 20 27 999 203 -12.3850 102.143 TC 30 1 236
1991105S12103 1991 19 SI WA FIFI 1991-04-16 06:00:00 TS -12.4000 102.300 30 998 bom main 703 703 O_____O_____O_ jtwc_sh SH201991 -12.4000 102.100 30 -1 -12.4000 102.700 20 30 998 2.50000 193 -12.4000 102.100 TC 30 1 218
1991105S12103 1991 19 SI WA FIFI 1991-04-16 09:00:00 TS -12.4475 102.276 main 703 703 P_____P_____P_ SH201991 -12.4425 102.092 30 -1 -12.4575 102.643 20 30 998 193 -12.4425 102.092 TC 30 1 197
1991105S12103 1991 19 SI WA FIFI 1991-04-16 12:00:00 TS -12.5000 102.267 30 998 bom main 713 713 O_____O_____O_ jtwc_sh SH201991 -12.5000 102.100 30 -1 -12.5000 102.600 20 30 998 2.50000 193 -12.5000 102.100 TC 30 1 0
1991105S12103 1991 19 SI WA FIFI 1991-04-16 15:00:00 TS -12.5450 102.264 main 713 713 P_____P_____P_ SH201991 -12.5425 102.100 32 -1 -12.5500 102.592 20 32 996 188 -12.5425 102.100 TC 32 1 0
1991105S12103 1991 19 SI WA FIFI 1991-04-16 18:00:00 TS -12.6000 102.267 35 995 bom main 723 723 O_____O_____O_ jtwc_sh SH201991 -12.6000 102.100 35 0 -12.6000 102.600 30 35 995 3.00000 183 -12.6000 102.100 TC 35 1 189
1991105S12103 1991 19 SI WA FIFI 1991-04-16 21:00:00 TS -12.6408 102.262 main 723 723 P_____P_____P_ SH201991 -12.6550 102.093 35 0 -12.6125 102.600 30 40 992 215 -12.6550 102.093 TC 35 2 173
1991105S12103 1991 19 SI WA FIFI 1991-04-17 00:00:00 TS -12.7667 102.267 45 990 bom main 743 743 O_____O_____O_ jtwc_sh SH201991 -12.8000 102.100 35 0 -12.7000 102.600 30 45 990 3.00000 247 -12.8000 102.100 TC 35 4 174
1991105S12103 1991 19 SI WA FIFI 1991-04-17 03:00:00 TS -13.0625 102.305 main 773 773 P_____P_____P_ SH201991 -13.1125 102.150 35 0 -12.9625 102.615 30 47 987 257 -13.1125 102.150 TC 35 7 174
1991105S12103 1991 19 SI WA FIFI 1991-04-17 06:00:00 TS -13.4333 102.333 50 985 bom main 804 804 O_____O_____O_ jtwc_sh SH201991 -13.5000 102.200 35 0 -13.3000 102.600 30 50 985 3.50000 268 -13.5000 102.200 TC 35 7 178
1991105S12103 1991 19 SI WA FIFI 1991-04-17 09:00:00 TS -13.7667 102.310 main 845 845 P_____P_____P_ SH201991 -13.8500 102.208 40 0 -13.6000 102.515 30 52 982 230 -13.8500 102.208 TC 40 7 186
1991105S12103 1991 19 SI WA FIFI 1991-04-17 12:00:00 TS -14.1000 102.267 55 980 bom main 873 873 O_____O_____O_ jtwc_sh SH201991 -14.2000 102.200 45 0 -13.9000 102.400 30 55 980 4.00000 193 -14.2000 102.200 TC 45 7 186
1991105S12103 1991 19 SI WA FIFI 1991-04-17 15:00:00 TS -14.4233 102.231 main 908 908 P_____P_____P_ SH201991 -14.5425 102.193 47 0 -14.1850 102.307 30 57 977 190 -14.5425 102.193 TC 47 7 186
1991105S12103 1991 19 SI WA FIFI 1991-04-17 18:00:00 TS -14.7667 102.200 60 975 bom main 947 947 O_____O_____O_ jtwc_sh SH201991 -14.9000 102.200 50 0 -14.5000 102.200 30 60 975 4.00000 187 -14.9000 102.200 TC 50 7 185
1991105S12103 1991 19 SI WA FIFI 1991-04-17 21:00:00 TS -15.1567 102.168 main 986 986 P_____P_____P_ SH201991 -15.3000 102.235 52 0 -14.8700 102.035 30 60 975 214 -15.3000 102.235 TC 52 8 183
1991105S12103 1991 19 SI WA FIFI 1991-04-18 00:00:00 TS -15.5667 102.167 60 975 bom main 1025 1025 O_____O_____O_ jtwc_sh SH201991 -15.7000 102.300 55 0 -15.3000 101.900 30 60 975 4.00000 241 -15.7000 102.300 TC 55 8 177
1991105S12103 1991 19 SI WA FIFI 1991-04-18 03:00:00 TS -15.9566 102.208 main 1066 1066 P_____P_____P_ SH201991 -16.0425 102.385 55 0 -15.7850 101.855 30 60 975 241 -16.0425 102.385 TC 55 8 171
1991105S12103 1991 19 SI WA FIFI 1991-04-18 06:00:00 TS -16.3667 102.300 60 975 bom main 1102 1102 O_____O_____O_ jtwc_sh SH201991 -16.4000 102.500 55 0 -16.3000 101.900 30 60 975 4.00000 241 -16.4000 102.500 TC 55 9 166
1991105S12103 1991 19 SI WA FIFI 1991-04-18 09:00:00 TS -16.8158 102.425 main 1138 1138 P_____P_____P_ SH201991 -16.8200 102.635 55 0 -16.8074 102.005 30 60 976 227 -16.8200 102.635 TC 55 10 163
1991105S12103 1991 19 SI WA FIFI 1991-04-18 12:00:00 TS -17.3000 102.600 60 978 bom main 1182 1182 O_____O_____O_ jtwc_sh SH201991 -17.3000 102.800 55 0 -17.3000 102.200 30 60 978 4.00000 214 -17.3000 102.800 TC 55 11 159
1991105S12103 1991 19 SI WA FIFI 1991-04-18 15:00:00 TS -17.8041 102.813 main 1228 1194 P_____P_____P_ SH201991 -17.8350 102.993 55 0 -17.7424 102.455 30 57 979 214 -17.8350 102.993 TC 55 11 157
1991105S12103 1991 19 SI WA FIFI 1991-04-18 18:00:00 TS -18.3333 103.067 55 980 bom main 1194 1151 O_____O_____O_ jtwc_sh SH201991 -18.4000 103.200 55 0 -18.2000 102.800 30 55 980 4.00000 214 -18.4000 103.200 TC 55 12 155
1991105S12103 1991 19 SI WA FIFI 1991-04-18 21:00:00 TS -18.8658 103.328 main 1147 1097 P_____P_____P_ SH201991 -18.9349 103.371 55 0 -18.7276 103.242 30 55 980 160 -18.9349 103.371 TC 55 12 154
1991105S12103 1991 19 SI WA FIFI 1991-04-19 00:00:00 TS -19.4333 103.633 55 980 bom main 1097 1035 O_____O_____O_ jtwc_sh SH201991 -19.5000 103.600 55 0 -19.3000 103.700 30 55 980 4.00000 106 -19.5000 103.600 TC 55 14 152
1991105S12103 1991 19 SI WA FIFI 1991-04-19 03:00:00 TS -20.0467 104.007 main 1035 973 P_____P_____P_ SH201991 -20.1201 103.970 55 0 -19.8999 104.080 30 52 982 152 -20.1201 103.970 TC 55 15 150
1991105S12103 1991 19 SI WA FIFI 1991-04-19 06:00:00 TS -20.7000 104.400 50 985 bom main 973 928 O_____O_____O_ jtwc_sh SH201991 -20.8000 104.400 55 0 -20.5000 104.400 30 50 985 3.50000 199 -20.8000 104.400 TC 55 15 152
1991105S12103 1991 19 SI WA FIFI 1991-04-19 09:00:00 TS -21.3607 104.751 main 916 876 P_____P_____P_ SH201991 -21.5049 104.793 52 0 -21.0724 104.665 30 45 987 260 -21.5049 104.793 TC 52 15 154
1991105S12103 1991 19 SI WA FIFI 1991-04-19 12:00:00 TS -22.0667 105.100 40 990 bom main 875 836 O_____O_____O_ jtwc_sh SH201991 -22.3000 105.200 50 0 -21.6000 104.900 30 40 990 3.00000 322 -22.3000 105.200 TC 50 15 156
1991105S12103 1991 19 SI WA FIFI 1991-04-19 15:00:00 TS -22.7521 105.431 main 833 776 P_____P_____P_ SH201991 -23.2124 105.636 50 0 -21.8314 105.022 30 35 995 335 -23.2124 105.636 TC 50 17 156
1991105S12103 1991 19 SI WA FIFI 1991-04-19 18:00:00 TS -23.6333 105.867 30 1000 bom main 766 694 O_____O_____O_ jtwc_sh SH201991 -24.2000 106.100 50 0 -22.5000 105.400 20 30 1000 2.50000 349 -24.2000 106.100 TC 50 25 155
1991105S12103 1991 19 SI WA FIFI 1991-04-19 21:00:00 TS -24.9554 106.576 main 682 597 P_____P_____P_ SH201991 -25.1848 106.586 47 0 -24.4965 106.557 20 32 1000 344 -25.1848 106.586 TC 47 30 154
1991105S12103 1991 19 SI WA FIFI 1991-04-20 00:00:00 TS -26.3000 107.300 35 1000 bom main 597 562 O_____O_____O_ jtwc_sh SH201991 -26.2000 107.100 45 0 -26.5000 107.700 51 35 1000 2.00000 340 -26.2000 107.100 TC 45 25 156
1991105S12103 1991 19 SI WA FIFI 1991-04-20 03:00:00 TS -27.2382 107.721 main 564 544 P_____P_____P_ SH201991 -27.2722 107.628 45 0 -27.1702 107.905 51 40 1001 -27.2722 107.628 TC 45 19 158
1991105S12103 1991 19 SI WA FIFI 1991-04-20 06:00:00 TS -28.0333 108.100 45 1002 bom main 547 538 O_____O_____O_ jtwc_sh SH201991 -28.3000 108.200 45 0 -27.5000 107.900 51 45 1002 1.50000 -28.3000 108.200 TC 45 19 154
1991105S12103 1991 19 SI WA FIFI 1991-04-20 09:00:00 TS -28.9107 108.660 main 537 508 P_____P_____P_ SH201991 -29.1947 108.829 45 0 -28.3426 108.324 51 47 998 -29.1947 108.829 TC 45 20 148
1991105S12103 1991 19 SI WA FIFI 1991-04-20 12:00:00 TS -29.7333 109.300 50 995 bom main 508 487 O_____O_____O_ jtwc_sh SH201991 -30.0000 109.500 45 0 -29.2000 108.900 51 50 995 -30.0000 109.500 TC 45 19 144
1991105S12103 1991 19 SI WA FIFI 1991-04-20 15:00:00 TS -30.4411 109.936 main 487 441 P_____P_____P_ SH201991 -30.7642 110.164 45 0 -29.7948 109.479 51 50 995 -30.7642 110.164 TC 45 17 139
1991105S12103 1991 19 SI WA FIFI 1991-04-20 18:00:00 TS -31.0200 110.580 50 995 bom main 432 387 O_____O_____O_ jtwc_sh SH201991 -31.5000 110.900 45 0 -30.3000 110.100 51 50 995 -31.5000 110.900 TC 45 15 134
1991105S12103 1991 19 SI WA FIFI 1991-04-20 21:00:00 TS -31.4799 111.206 main 387 349 P_____P_____P_ SH201991 -32.2467 111.759 45 0 -30.7130 110.652 51 50 992 -32.2467 111.759 TC 45 14 131
1991105S12103 1991 19 SI WA FIFI 1991-04-21 00:00:00 TS -31.9333 111.833 50 990 bom main 349 244 O_____O_____O_ jtwc_sh SH201991 -33.0000 112.700 45 0 -31.4000 111.400 51 50 990 -33.0000 112.700 TC 45 18 135
1991105S12103 1991 19 SI WA FIFI 1991-04-21 03:00:00 NR -32.7336 112.676 main 236 101 ______P_______ SH201991 -1 -32.7336 112.676 51 50 990 TC 30 142
1991105S12103 1991 19 SI WA FIFI 1991-04-21 06:00:00 NR -34.3000 114.000 50 990 bom main 94 78 ______O_______ -1 -34.3000 114.000 51 50 990 35 148
1991105S12103 1991 19 SI WA FIFI 1991-04-21 09:00:00 NR -35.7123 114.896 main 141 141 ______P_______ -1 -35.7123 114.896 51 50 990 30 156
1991105S12103 1991 19 SI WA FIFI 1991-04-21 12:00:00 NR -37.0000 115.500 50 990 bom main 233 ______O_______ -1 -37.0000 115.500 51 50 990 28 160

IBTrACS Databaseについて

本データベースは、米国NOAAが公開する1842年以降の世界の熱帯低気圧のベストトラックデータアーカイブInternational Best Track Archive for Climate Stewardship (IBTrACS)を、ウェブで閲覧しやすい形式に変換したものです。

最終更新日:2021-12-06